Terminal Aerodrome Forecast
Issued by NWS

Home | Current Version | Previous Version | Text Only | Print | Product List | Glossary On
Versions: 1 2 3 4 5 6 7 8 9 10 11 12 13 14 15 16 17 18 19 20 21
000
FTUS43 KDVN 311100
TAFCID
TAF
KCID 311127Z 3112/0112 19007KT P6SM SCT080
     FM311500 24008KT P6SM BKN015
     FM312100 21005KT 3SM -RASN BR OVC012
     FM312300 VRB05KT 1SM -SN BR OVC007
     FM010300 08009KT 1/2SM SN FG OVC003=

USA.gov is the U.S. government's official web portal to all federal, state and local government web resources and services.